createdAt,value
2017-08-01T00:00:41.231Z,0
2017-08-01T00:01:40.909Z,0
2017-08-01T00:02:40.916Z,0
2017-08-01T00:03:41.290Z,0
2017-08-01T00:04:41.597Z,0
2017-08-01T00:05:41.219Z,0
2017-08-01T00:06:40.909Z,0
2017-08-01T00:07:41.546Z,0
2017-08-01T00:08:40.595Z,0
2017-08-01T00:09:41.531Z,0
2017-08-01T00:10:40.569Z,0
2017-08-01T00:11:41.208Z,0
2017-08-01T00:12:41.218Z,0
2017-08-01T00:13:41.550Z,0
2017-08-01T00:14:41.207Z,0
2017-08-01T00:15:40.902Z,0
2017-08-01T00:16:41.194Z,0
2017-08-01T00:17:41.205Z,0
2017-08-01T00:18:40.564Z,0
2017-08-01T00:19:41.553Z,0
2017-08-01T00:20:41.208Z,0
2017-08-01T00:21:40.575Z,0
2017-08-01T00:22:40.896Z,0
2017-08-01T00:23:41.218Z,0
2017-08-01T00:24:41.225Z,0
2017-08-01T00:25:41.508Z,0
2017-08-01T00:26:40.872Z,0
2017-08-01T00:27:41.522Z,0
2017-08-01T00:28:41.216Z,0
2017-08-01T00:29:40.859Z,0
2017-08-01T00:30:40.555Z,0
2017-08-01T00:31:41.191Z,0
2017-08-01T00:32:41.186Z,0
2017-08-01T00:33:40.862Z,0
2017-08-01T00:34:41.181Z,0
2017-08-01T00:35:41.547Z,0
2017-08-01T00:36:41.214Z,0
2017-08-01T00:37:40.847Z,0
2017-08-01T00:38:41.186Z,0
2017-08-01T00:39:41.165Z,0
2017-08-01T00:40:41.486Z,0
2017-08-01T00:41:41.174Z,0
2017-08-01T00:42:41.187Z,0
2017-08-01T00:43:41.198Z,0
2017-08-01T00:44:41.482Z,0
2017-08-01T00:45:41.478Z,0
2017-08-01T00:46:41.493Z,0
2017-08-01T00:47:41.469Z,0
2017-08-01T00:48:40.848Z,0
2017-08-01T00:49:40.840Z,0
2017-08-01T00:50:41.148Z,0
2017-08-01T00:51:41.472Z,0
2017-08-01T00:52:40.874Z,0
2017-08-01T00:53:41.534Z,0
2017-08-01T00:54:41.390Z,0
2017-08-01T00:55:41.173Z,0
2017-08-01T00:56:40.825Z,0
2017-08-01T00:57:40.506Z,0
2017-08-01T00:58:41.134Z,0
2017-08-01T00:59:41.137Z,0
2017-08-01T01:00:41.135Z,0
2017-08-01T01:01:40.823Z,0
2017-08-01T01:02:41.148Z,0
2017-08-01T01:03:40.801Z,0
2017-08-01T01:04:41.444Z,0
2017-08-01T01:05:40.818Z,0
2017-08-01T01:06:41.455Z,0
2017-08-01T01:07:40.820Z,0
2017-08-01T01:08:41.444Z,0
2017-08-01T01:09:40.164Z,0
2017-08-01T01:10:40.848Z,0
2017-08-01T01:11:41.128Z,0
2017-08-01T01:12:41.109Z,0
2017-08-01T01:13:41.451Z,0
2017-08-01T01:14:41.464Z,0
2017-08-01T01:15:41.124Z,0
2017-08-01T01:16:40.800Z,0
2017-08-01T01:17:40.778Z,0
2017-08-01T01:18:41.125Z,0
2017-08-01T01:19:41.438Z,0
2017-08-01T01:20:41.109Z,0
2017-08-01T01:21:41.095Z,0
2017-08-01T01:22:41.159Z,0
2017-08-01T01:23:41.088Z,0
2017-08-01T01:24:41.425Z,0
2017-08-01T01:25:41.096Z,0
2017-08-01T01:26:41.422Z,0
2017-08-01T01:27:41.081Z,0
2017-08-01T01:28:41.399Z,0
2017-08-01T01:29:41.109Z,0
2017-08-01T01:30:41.453Z,0
2017-08-01T01:31:41.067Z,0
2017-08-01T01:32:40.753Z,0
2017-08-01T01:33:41.088Z,0
2017-08-01T01:34:41.410Z,0
2017-08-01T01:35:41.095Z,0
2017-08-01T01:36:40.790Z,0
2017-08-01T01:37:40.757Z,0
2017-08-01T01:38:41.397Z,0
2017-08-01T01:39:41.435Z,0
2017-08-01T01:40:41.077Z,0
2017-08-01T01:41:41.419Z,0
2017-08-01T01:42:41.064Z,0
2017-08-01T01:43:40.740Z,0
2017-08-01T01:44:41.527Z,0
2017-08-01T01:45:40.746Z,0
2017-08-01T01:46:41.046Z,0
2017-08-01T01:47:41.051Z,0
2017-08-01T01:48:41.050Z,0
2017-08-01T01:49:41.041Z,0
2017-08-01T01:50:41.044Z,0
2017-08-01T01:51:41.038Z,0
2017-08-01T01:52:41.364Z,0
2017-08-01T01:53:40.756Z,0
2017-08-01T01:54:40.730Z,0
2017-08-01T01:55:41.347Z,0
2017-08-01T01:56:41.385Z,0
2017-08-01T01:57:41.367Z,0
2017-08-01T01:58:41.373Z,0
2017-08-01T01:59:41.045Z,0
2017-08-01T02:00:40.701Z,0
2017-08-01T02:01:41.360Z,0
2017-08-01T02:02:41.013Z,0
2017-08-01T02:03:40.688Z,0
2017-08-01T02:04:41.330Z,0
2017-08-01T02:05:41.342Z,0
2017-08-01T02:06:41.335Z,0
2017-08-01T02:07:41.325Z,0
2017-08-01T02:08:41.316Z,0
2017-08-01T02:09:40.697Z,0
2017-08-01T02:10:40.682Z,0
2017-08-01T02:11:41.014Z,0
2017-08-01T02:12:40.693Z,0
2017-08-01T02:13:40.710Z,0
2017-08-01T02:14:40.665Z,0
2017-08-01T02:15:40.987Z,0
2017-08-01T02:16:41.320Z,0
2017-08-01T02:17:41.299Z,0
2017-08-01T02:18:40.338Z,0
2017-08-01T02:19:40.664Z,0
2017-08-01T02:20:40.681Z,0
2017-08-01T02:21:41.291Z,0
2017-08-01T02:22:40.968Z,0
2017-08-01T02:23:40.325Z,0
2017-08-01T02:24:40.324Z,0
2017-08-01T02:25:41.281Z,0
2017-08-01T02:26:41.332Z,0
2017-08-01T02:27:40.955Z,0
2017-08-01T02:28:40.946Z,0
2017-08-01T02:29:40.640Z,0
2017-08-01T02:30:40.966Z,0
2017-08-01T02:31:40.623Z,0
2017-08-01T02:32:41.262Z,0
2017-08-01T02:33:40.956Z,0
2017-08-01T02:34:41.274Z,0
2017-08-01T02:35:41.268Z,0
2017-08-01T02:36:40.930Z,0
2017-08-01T02:37:41.291Z,0
2017-08-01T02:38:40.650Z,0
2017-08-01T02:39:40.629Z,0
2017-08-01T02:40:40.612Z,0
2017-08-01T02:41:40.611Z,0
2017-08-01T02:42:40.957Z,0
2017-08-01T02:43:40.920Z,0
2017-08-01T02:44:41.241Z,0
2017-08-01T02:45:40.937Z,0
2017-08-01T02:46:40.298Z,0
2017-08-01T02:47:40.917Z,0
2017-08-01T02:48:41.234Z,0
2017-08-01T02:49:40.945Z,0
2017-08-01T02:50:40.933Z,0
2017-08-01T02:51:40.270Z,0
2017-08-01T02:52:40.899Z,0
2017-08-01T02:53:41.220Z,0
2017-08-01T02:54:40.572Z,0
2017-08-01T02:55:41.221Z,0
2017-08-01T02:56:41.220Z,0
2017-08-01T02:57:40.277Z,0
2017-08-01T02:58:40.890Z,0
2017-08-01T02:59:40.880Z,0
2017-08-01T03:00:41.213Z,0
2017-08-01T03:01:41.203Z,0
2017-08-01T03:02:41.207Z,0
2017-08-01T03:03:40.538Z,0
2017-08-01T03:04:40.857Z,0
2017-08-01T03:05:41.193Z,0
2017-08-01T03:06:40.542Z,0
2017-08-01T03:07:39.920Z,0
2017-08-01T03:08:40.538Z,0
2017-08-01T03:09:40.896Z,0
2017-08-01T03:10:40.217Z,0
2017-08-01T03:11:41.202Z,0
2017-08-01T03:12:40.874Z,0
2017-08-01T03:13:41.226Z,0
2017-08-01T03:14:40.846Z,0
2017-08-01T03:15:41.180Z,0
2017-08-01T03:16:40.849Z,0
2017-08-01T03:17:41.179Z,0
2017-08-01T03:18:41.204Z,0
2017-08-01T03:19:40.843Z,0
2017-08-01T03:20:40.839Z,0
2017-08-01T03:21:40.512Z,0
2017-08-01T03:22:40.586Z,0
2017-08-01T03:23:40.828Z,0
2017-08-01T03:24:40.841Z,0
2017-08-01T03:25:41.199Z,0
2017-08-01T03:26:40.823Z,0
2017-08-01T03:27:40.531Z,0
2017-08-01T03:28:40.888Z,0
2017-08-01T03:29:40.555Z,0
2017-08-01T03:30:40.858Z,0
2017-08-01T03:31:41.173Z,0
2017-08-01T03:32:40.882Z,5
2017-08-01T03:33:40.496Z,5
2017-08-01T03:34:40.176Z,5
2017-08-01T03:35:40.847Z,5
2017-08-01T03:36:40.814Z,5
2017-08-01T03:37:40.808Z,5
2017-08-01T03:38:40.821Z,5
2017-08-01T03:39:40.802Z,5
2017-08-01T03:40:41.134Z,5
2017-08-01T03:41:40.773Z,5
2017-08-01T03:42:41.104Z,10
2017-08-01T03:43:41.097Z,10
2017-08-01T03:44:40.769Z,10
2017-08-01T03:45:40.783Z,10
2017-08-01T03:46:40.446Z,10
2017-08-01T03:47:40.763Z,15
2017-08-01T03:48:41.080Z,15
2017-08-01T03:49:40.441Z,15
2017-08-01T03:50:40.756Z,15
2017-08-01T03:51:40.764Z,20
2017-08-01T03:52:40.765Z,20
2017-08-01T03:53:40.422Z,20
2017-08-01T03:54:40.777Z,20
2017-08-01T03:55:40.417Z,25
2017-08-01T03:56:40.741Z,25
2017-08-01T03:57:40.746Z,25
2017-08-01T03:58:41.070Z,30
2017-08-01T03:59:41.090Z,25
2017-08-01T04:00:41.053Z,25
2017-08-01T04:01:41.064Z,25
2017-08-01T04:02:40.755Z,25
2017-08-01T04:03:40.393Z,25
2017-08-01T04:04:40.739Z,20
2017-08-01T04:05:40.736Z,20
2017-08-01T04:06:40.743Z,15
2017-08-01T04:07:40.088Z,15
2017-08-01T04:08:40.697Z,10
2017-08-01T04:09:40.401Z,10
2017-08-01T04:10:40.717Z,10
2017-08-01T04:11:41.026Z,5
2017-08-01T04:12:41.011Z,10
2017-08-01T04:13:40.364Z,15
2017-08-01T04:14:41.024Z,25
2017-08-01T04:15:40.696Z,30
2017-08-01T04:16:40.999Z,35
2017-08-01T04:17:41.017Z,40
2017-08-01T04:18:40.714Z,40
2017-08-01T04:19:40.685Z,45
2017-08-01T04:20:40.673Z,50
2017-08-01T04:21:40.361Z,50
2017-08-01T04:22:40.676Z,55
2017-08-01T04:23:40.666Z,60
2017-08-01T04:24:41.068Z,65
2017-08-01T04:25:40.666Z,65
2017-08-01T04:26:40.656Z,65
2017-08-01T04:27:40.661Z,70
2017-08-01T04:28:40.669Z,70
2017-08-01T04:29:40.339Z,70
2017-08-01T04:30:40.639Z,70
2017-08-01T04:31:40.667Z,70
2017-08-01T04:32:40.974Z,80
2017-08-01T04:33:40.971Z,90
2017-08-01T04:34:40.644Z,95
2017-08-01T04:35:40.639Z,100
2017-08-01T04:36:40.967Z,95
2017-08-01T04:37:40.950Z,90
2017-08-01T04:38:40.626Z,85
2017-08-01T04:39:40.978Z,85
2017-08-01T04:40:40.644Z,85
2017-08-01T04:41:39.992Z,85
2017-08-01T04:42:40.943Z,85
2017-08-01T04:43:40.950Z,90
2017-08-01T04:44:40.616Z,95
2017-08-01T04:45:41.214Z,90
2017-08-01T04:46:40.315Z,90
2017-08-01T04:47:40.958Z,90
2017-08-01T04:48:40.923Z,85
2017-08-01T04:49:40.622Z,85
2017-08-01T04:50:40.314Z,90
2017-08-01T04:51:40.292Z,90
2017-08-01T04:52:40.947Z,90
2017-08-01T04:53:40.297Z,85
2017-08-01T04:54:40.621Z,85
2017-08-01T04:55:40.291Z,85
2017-08-01T04:56:40.611Z,85
2017-08-01T04:57:40.642Z,85
2017-08-01T04:58:40.586Z,90
2017-08-01T04:59:39.976Z,90
2017-08-01T05:00:40.925Z,85
2017-08-01T05:01:40.908Z,80
2017-08-01T05:02:39.942Z,80
2017-08-01T05:03:40.916Z,75
2017-08-01T05:04:40.606Z,80
2017-08-01T05:05:39.927Z,80
2017-08-01T05:06:40.601Z,85
2017-08-01T05:07:40.262Z,90
2017-08-01T05:08:40.925Z,100
2017-08-01T05:09:40.254Z,105
2017-08-01T05:10:40.606Z,110
2017-08-01T05:11:40.273Z,120
2017-08-01T05:12:40.571Z,120
2017-08-01T05:13:40.883Z,125
2017-08-01T05:14:40.925Z,125
2017-08-01T05:15:40.555Z,130
2017-08-01T05:16:40.883Z,140
2017-08-01T05:17:40.582Z,135
2017-08-01T05:18:40.547Z,135
2017-08-01T05:19:40.556Z,130
2017-08-01T05:20:40.239Z,125
2017-08-01T05:21:40.862Z,125
2017-08-01T05:22:40.889Z,125
2017-08-01T05:23:40.539Z,120
2017-08-01T05:24:40.878Z,125
2017-08-01T05:25:40.854Z,130
2017-08-01T05:26:40.230Z,135
2017-08-01T05:27:40.542Z,140
2017-08-01T05:28:40.873Z,140
2017-08-01T05:29:40.260Z,140
2017-08-01T05:30:40.216Z,140
2017-08-01T05:31:39.896Z,140
2017-08-01T05:32:40.219Z,140
2017-08-01T05:33:40.529Z,135
2017-08-01T05:34:40.867Z,140
2017-08-01T05:35:40.236Z,135
2017-08-01T05:36:40.846Z,145
2017-08-01T05:37:40.855Z,150
2017-08-01T05:38:40.858Z,155
2017-08-01T05:39:40.874Z,155
2017-08-01T05:40:40.191Z,160
2017-08-01T05:41:40.196Z,160
2017-08-01T05:42:40.512Z,160
2017-08-01T05:43:40.516Z,160
2017-08-01T05:44:40.197Z,155
2017-08-01T05:45:40.509Z,150
2017-08-01T05:46:40.865Z,155
2017-08-01T05:47:40.180Z,160
2017-08-01T05:48:40.833Z,175
2017-08-01T05:49:40.177Z,180
2017-08-01T05:50:40.873Z,175
2017-08-01T05:51:40.529Z,175
2017-08-01T05:52:40.527Z,190
2017-08-01T05:53:40.553Z,195
2017-08-01T05:54:40.490Z,205
2017-08-01T05:55:40.815Z,210
2017-08-01T05:56:40.628Z,215
2017-08-01T05:57:40.497Z,215
2017-08-01T05:58:40.835Z,215
2017-08-01T05:59:40.516Z,220
2017-08-01T06:00:40.524Z,245
2017-08-01T06:01:40.510Z,275
2017-08-01T06:02:40.492Z,330
2017-08-01T06:03:40.164Z,355
2017-08-01T06:04:40.813Z,325
2017-08-01T06:05:40.480Z,305
2017-08-01T06:06:40.493Z,285
2017-08-01T06:07:40.709Z,250
2017-08-01T06:08:40.584Z,225
2017-08-01T06:09:41.235Z,275
2017-08-01T06:10:40.473Z,185
2017-08-01T06:11:40.523Z,200
2017-08-01T06:12:40.478Z,220
2017-08-01T06:13:40.146Z,280
2017-08-01T06:14:40.478Z,295
2017-08-01T06:15:40.815Z,285
2017-08-01T06:16:40.811Z,260
2017-08-01T06:17:40.172Z,250
2017-08-01T06:18:40.153Z,220
2017-08-01T06:19:40.508Z,220
2017-08-01T06:20:40.789Z,210
2017-08-01T06:21:39.851Z,205
2017-08-01T06:22:40.493Z,210
2017-08-01T06:23:40.469Z,215
2017-08-01T06:24:40.485Z,250
2017-08-01T06:25:40.502Z,265
2017-08-01T06:26:40.496Z,360
2017-08-01T06:27:40.487Z,365
2017-08-01T06:28:40.147Z,340
2017-08-01T06:29:40.814Z,270
2017-08-01T06:30:40.785Z,260
2017-08-01T06:31:40.496Z,245
2017-08-01T06:32:40.484Z,240
2017-08-01T06:33:40.473Z,245
2017-08-01T06:34:40.804Z,280
2017-08-01T06:35:40.775Z,330
2017-08-01T06:36:40.482Z,380
2017-08-01T06:37:40.825Z,400
2017-08-01T06:38:40.145Z,410
2017-08-01T06:39:39.817Z,425
2017-08-01T06:40:40.169Z,390
2017-08-01T06:41:40.161Z,380
2017-08-01T06:42:40.461Z,385
2017-08-01T06:43:39.489Z,365
2017-08-01T06:44:40.782Z,305
2017-08-01T06:45:40.831Z,285
2017-08-01T06:46:40.458Z,315
2017-08-01T06:47:40.809Z,305
2017-08-01T06:48:40.784Z,320
2017-08-01T06:49:40.139Z,310
2017-08-01T06:50:40.464Z,325
2017-08-01T06:51:40.460Z,385
2017-08-01T06:52:40.143Z,465
2017-08-01T06:53:40.154Z,500
2017-08-01T06:54:40.486Z,545
2017-08-01T06:55:40.477Z,480
2017-08-01T06:56:40.801Z,595
2017-08-01T06:57:40.156Z,435
2017-08-01T06:58:40.799Z,370
2017-08-01T06:59:39.818Z,360
2017-08-01T07:00:40.471Z,320
2017-08-01T07:01:40.467Z,285
2017-08-01T07:02:40.468Z,275
2017-08-01T07:03:40.490Z,425
2017-08-01T07:04:40.815Z,265
2017-08-01T07:05:40.145Z,280
2017-08-01T07:06:40.491Z,330
2017-08-01T07:07:40.473Z,370
2017-08-01T07:08:40.790Z,420
2017-08-01T07:09:40.528Z,375
2017-08-01T07:10:40.486Z,375
2017-08-01T07:11:40.186Z,305
2017-08-01T07:12:40.822Z,300
2017-08-01T07:13:40.176Z,290
2017-08-01T07:14:40.485Z,280
2017-08-01T07:15:39.849Z,265
2017-08-01T07:16:40.184Z,275
2017-08-01T07:17:39.857Z,270
2017-08-01T07:18:40.491Z,265
2017-08-01T07:19:40.201Z,255
2017-08-01T07:20:40.822Z,260
2017-08-01T07:21:39.866Z,235
2017-08-01T07:22:40.513Z,215
2017-08-01T07:23:40.519Z,195
2017-08-01T07:24:40.526Z,195
2017-08-01T07:25:40.533Z,190
2017-08-01T07:26:40.201Z,195
2017-08-01T07:27:40.514Z,195
2017-08-01T07:28:40.547Z,205
2017-08-01T07:29:40.529Z,320
2017-08-01T07:30:40.518Z,425
2017-08-01T07:31:40.833Z,375
2017-08-01T07:32:40.514Z,480
2017-08-01T07:33:40.199Z,465
2017-08-01T07:34:40.518Z,455
2017-08-01T07:35:40.606Z,450
2017-08-01T07:36:40.877Z,445
2017-08-01T07:37:40.532Z,445
2017-08-01T07:38:40.535Z,435
2017-08-01T07:39:40.544Z,430
2017-08-01T07:40:40.856Z,400
2017-08-01T07:41:40.582Z,360
2017-08-01T07:42:40.862Z,335
2017-08-01T07:43:40.549Z,330
2017-08-01T07:44:40.549Z,340
2017-08-01T07:45:40.277Z,375
2017-08-01T07:46:40.246Z,385
2017-08-01T07:47:40.550Z,400
2017-08-01T07:48:40.572Z,425
2017-08-01T07:49:40.564Z,450
2017-08-01T07:50:40.885Z,460
2017-08-01T07:51:40.592Z,410
2017-08-01T07:52:40.000Z,340
2017-08-01T07:53:40.264Z,315
2017-08-01T07:54:40.264Z,300
2017-08-01T07:55:40.611Z,290
2017-08-01T07:56:40.628Z,295
2017-08-01T07:57:40.624Z,305
2017-08-01T07:58:39.986Z,325
2017-08-01T07:59:40.619Z,320
2017-08-01T08:00:40.983Z,325
2017-08-01T08:01:40.669Z,355
2017-08-01T08:02:40.642Z,345
2017-08-01T08:03:40.960Z,320
2017-08-01T08:04:40.667Z,305
2017-08-01T08:05:40.662Z,295
2017-08-01T08:06:40.996Z,320
2017-08-01T08:07:40.354Z,345
2017-08-01T08:08:40.370Z,365
2017-08-01T08:09:40.693Z,355
2017-08-01T08:10:40.691Z,345
2017-08-01T08:11:40.104Z,405
2017-08-01T08:12:40.403Z,405
2017-08-01T08:13:40.704Z,425
2017-08-01T08:14:40.743Z,435
2017-08-01T08:15:41.060Z,440
2017-08-01T08:16:40.730Z,460
2017-08-01T08:17:41.038Z,470
2017-08-01T08:18:41.079Z,460
2017-08-01T08:19:41.047Z,445
2017-08-01T08:20:40.732Z,465
2017-08-01T08:21:40.800Z,465
2017-08-01T08:22:40.766Z,460
2017-08-01T08:23:40.753Z,480
2017-08-01T08:24:41.114Z,495
2017-08-01T08:25:40.458Z,535
2017-08-01T08:26:40.766Z,515
2017-08-01T08:27:41.094Z,515
2017-08-01T08:28:41.096Z,515
2017-08-01T08:29:40.792Z,520
2017-08-01T08:30:40.808Z,530
2017-08-01T08:31:40.814Z,495
2017-08-01T08:32:40.805Z,445
2017-08-01T08:33:40.847Z,375
2017-08-01T08:34:41.142Z,305
2017-08-01T08:35:40.876Z,255
2017-08-01T08:36:40.843Z,230
2017-08-01T08:37:40.837Z,235
2017-08-01T08:38:41.190Z,275
2017-08-01T08:39:40.883Z,315
2017-08-01T08:40:41.304Z,345
2017-08-01T08:41:41.227Z,345
2017-08-01T08:42:41.195Z,340
2017-08-01T08:43:41.193Z,330
2017-08-01T08:44:40.552Z,330
2017-08-01T08:45:41.213Z,330
2017-08-01T08:46:41.207Z,330
2017-08-01T08:47:41.222Z,335
2017-08-01T08:48:41.262Z,360
2017-08-01T08:49:41.247Z,375
2017-08-01T08:50:40.929Z,400
2017-08-01T08:51:40.594Z,410
2017-08-01T08:52:40.943Z,405
2017-08-01T08:53:40.927Z,405
2017-08-01T08:54:40.305Z,385
2017-08-01T08:55:40.610Z,340
2017-08-01T08:56:41.258Z,315
2017-08-01T08:57:40.935Z,295
2017-08-01T08:58:41.303Z,270
2017-08-01T08:59:40.662Z,255
2017-08-01T09:00:41.283Z,245
2017-08-01T09:01:41.304Z,260
2017-08-01T09:02:40.712Z,275
2017-08-01T09:03:41.321Z,295
2017-08-01T09:04:40.380Z,310
2017-08-01T09:05:41.000Z,325
2017-08-01T09:06:41.005Z,305
2017-08-01T09:07:41.357Z,280
2017-08-01T09:08:41.312Z,260
2017-08-01T09:09:41.019Z,235
2017-08-01T09:10:40.672Z,225
2017-08-01T09:11:41.315Z,240
2017-08-01T09:12:41.004Z,240
2017-08-01T09:13:40.710Z,230
2017-08-01T09:14:41.350Z,225
2017-08-01T09:15:40.724Z,220
2017-08-01T09:16:41.353Z,215
2017-08-01T09:17:41.076Z,215
2017-08-01T09:18:40.736Z,215
2017-08-01T09:19:41.050Z,215
2017-08-01T09:20:40.725Z,215
2017-08-01T09:21:41.051Z,215
2017-08-01T09:22:41.385Z,220
2017-08-01T09:23:41.401Z,215
2017-08-01T09:24:41.110Z,215
2017-08-01T09:25:40.770Z,215
2017-08-01T09:26:40.812Z,215
2017-08-01T09:27:41.402Z,210
2017-08-01T09:28:41.083Z,195
2017-08-01T09:29:41.431Z,225
2017-08-01T09:30:41.099Z,260
2017-08-01T09:31:41.447Z,260
2017-08-01T09:32:41.445Z,250
2017-08-01T09:33:41.125Z,240
2017-08-01T09:34:40.793Z,245
2017-08-01T09:35:40.797Z,240
2017-08-01T09:36:41.462Z,235
2017-08-01T09:37:40.806Z,240
2017-08-01T09:38:41.468Z,255
2017-08-01T09:39:41.475Z,250
2017-08-01T09:40:41.482Z,270
2017-08-01T09:41:41.481Z,285
2017-08-01T09:42:40.887Z,335
2017-08-01T09:43:41.527Z,365
2017-08-01T09:44:41.167Z,365
2017-08-01T09:45:41.180Z,350
2017-08-01T09:46:41.494Z,365
2017-08-01T09:47:41.190Z,360
2017-08-01T09:48:40.880Z,395
2017-08-01T09:49:40.556Z,430
2017-08-01T09:50:41.537Z,445
2017-08-01T09:51:41.224Z,425
2017-08-01T09:52:41.543Z,420
2017-08-01T09:53:41.220Z,435
2017-08-01T09:54:41.228Z,455
2017-08-01T09:55:41.554Z,450
2017-08-01T09:56:41.573Z,455
2017-08-01T09:57:40.945Z,415
2017-08-01T09:58:41.634Z,340
2017-08-01T09:59:40.934Z,275
2017-08-01T10:00:40.943Z,240
2017-08-01T10:01:41.264Z,235
2017-08-01T10:02:41.593Z,235
2017-08-01T10:03:41.599Z,230
2017-08-01T10:04:40.959Z,215
2017-08-01T10:05:41.287Z,195
2017-08-01T10:06:41.649Z,185
2017-08-01T10:07:41.002Z,195
2017-08-01T10:08:41.327Z,210
2017-08-01T10:09:41.651Z,215
2017-08-01T10:10:41.658Z,205
2017-08-01T10:11:41.657Z,200
2017-08-01T10:12:41.670Z,200
2017-08-01T10:13:41.741Z,200
2017-08-01T10:14:41.670Z,195
2017-08-01T10:15:41.349Z,195
2017-08-01T10:16:40.724Z,195
2017-08-01T10:17:41.704Z,195
2017-08-01T10:18:41.375Z,195
2017-08-01T10:19:41.370Z,195
2017-08-01T10:20:41.375Z,195
2017-08-01T10:21:40.739Z,200
2017-08-01T10:22:41.740Z,190
2017-08-01T10:23:41.717Z,190
2017-08-01T10:24:41.079Z,190
2017-08-01T10:25:41.085Z,190
2017-08-01T10:26:41.411Z,190
2017-08-01T10:27:41.420Z,190
2017-08-01T10:28:41.429Z,190
2017-08-01T10:29:41.107Z,185
2017-08-01T10:30:41.766Z,185
2017-08-01T10:31:41.452Z,185
2017-08-01T10:32:41.768Z,185
2017-08-01T10:33:41.145Z,185
2017-08-01T10:34:41.495Z,185
2017-08-01T10:35:41.814Z,190
2017-08-01T10:36:41.816Z,185
2017-08-01T10:37:41.489Z,185
2017-08-01T10:38:40.857Z,185
2017-08-01T10:39:40.868Z,185
2017-08-01T10:40:41.819Z,185
2017-08-01T10:41:41.829Z,185
2017-08-01T10:42:41.199Z,185
2017-08-01T10:43:41.847Z,185
2017-08-01T10:44:41.583Z,185
2017-08-01T10:45:41.570Z,185
2017-08-01T10:46:41.536Z,195
2017-08-01T10:47:41.583Z,180
2017-08-01T10:48:41.554Z,180
2017-08-01T10:49:41.564Z,180
2017-08-01T10:50:41.607Z,180
2017-08-01T10:51:41.897Z,180
2017-08-01T10:52:40.932Z,180
2017-08-01T10:53:41.579Z,180
2017-08-01T10:54:41.617Z,180
2017-08-01T10:55:40.947Z,180
2017-08-01T10:56:41.633Z,180
2017-08-01T10:57:41.605Z,180
2017-08-01T10:58:41.638Z,180
2017-08-01T10:59:41.301Z,180
2017-08-01T11:00:41.962Z,180
2017-08-01T11:01:41.661Z,180
2017-08-01T11:02:41.656Z,180
2017-08-01T11:03:41.657Z,180
2017-08-01T11:04:41.986Z,180
2017-08-01T11:05:41.357Z,180
2017-08-01T11:06:42.006Z,180
2017-08-01T11:07:41.401Z,180
2017-08-01T11:08:41.366Z,180
2017-08-01T11:09:42.021Z,180
2017-08-01T11:10:41.723Z,175
2017-08-01T11:11:41.368Z,175
2017-08-01T11:12:42.038Z,175
2017-08-01T11:13:41.711Z,175
2017-08-01T11:14:42.040Z,180
2017-08-01T11:15:41.723Z,180
2017-08-01T11:16:41.410Z,180
2017-08-01T11:17:41.744Z,175
2017-08-01T11:18:41.456Z,180
2017-08-01T11:19:42.070Z,180
2017-08-01T11:20:41.470Z,175
2017-08-01T11:21:41.794Z,180
2017-08-01T11:22:41.133Z,180
2017-08-01T11:23:41.788Z,180
2017-08-01T11:24:41.454Z,175
2017-08-01T11:25:41.790Z,175
2017-08-01T11:26:41.478Z,175
2017-08-01T11:27:41.164Z,175
2017-08-01T11:28:41.814Z,175
2017-08-01T11:29:41.542Z,175
2017-08-01T11:30:41.818Z,175
2017-08-01T11:31:41.507Z,175
2017-08-01T11:32:41.838Z,175
2017-08-01T11:33:41.894Z,175
2017-08-01T11:34:41.212Z,175
2017-08-01T11:35:41.576Z,175
2017-08-01T11:36:42.213Z,175
2017-08-01T11:37:42.205Z,175
2017-08-01T11:38:41.913Z,175
2017-08-01T11:39:41.878Z,175
2017-08-01T11:40:41.891Z,175
2017-08-01T11:41:41.593Z,170
2017-08-01T11:42:44.893Z,170
2017-08-01T11:43:42.237Z,170
2017-08-01T11:44:42.260Z,170
2017-08-01T11:45:42.265Z,170
2017-08-01T11:46:41.622Z,170
2017-08-01T11:47:41.952Z,170
2017-08-01T11:48:41.947Z,170
2017-08-01T11:49:42.289Z,170
2017-08-01T11:50:42.308Z,165
2017-08-01T11:51:41.986Z,165
2017-08-01T11:52:41.650Z,165
2017-08-01T11:53:41.352Z,165
2017-08-01T11:54:42.335Z,165
2017-08-01T11:55:41.728Z,165
2017-08-01T11:56:42.322Z,165
2017-08-01T11:57:41.686Z,165
2017-08-01T11:58:41.738Z,165
2017-08-01T11:59:42.355Z,170
2017-08-01T12:00:42.362Z,165
2017-08-01T12:01:42.040Z,165
2017-08-01T12:02:42.369Z,165
2017-08-01T12:03:42.379Z,165
2017-08-01T12:04:42.063Z,165
2017-08-01T12:05:42.071Z,165
2017-08-01T12:06:42.074Z,165
2017-08-01T12:07:42.075Z,165
2017-08-01T12:08:41.439Z,165
2017-08-01T12:09:42.420Z,165
2017-08-01T12:10:42.126Z,165
2017-08-01T12:11:41.789Z,165
2017-08-01T12:12:42.159Z,165
2017-08-01T12:13:42.130Z,165
2017-08-01T12:14:42.137Z,170
2017-08-01T12:15:41.823Z,170
2017-08-01T12:16:42.183Z,170
2017-08-01T12:17:41.872Z,170
2017-08-01T12:18:42.179Z,170
2017-08-01T12:19:42.162Z,170
2017-08-01T12:20:42.507Z,170
2017-08-01T12:21:42.515Z,165
2017-08-01T12:22:42.182Z,165
2017-08-01T12:23:41.578Z,170
2017-08-01T12:24:42.551Z,170
2017-08-01T12:25:42.555Z,170
2017-08-01T12:26:42.224Z,170
2017-08-01T12:27:42.241Z,170
2017-08-01T12:28:41.594Z,170
2017-08-01T12:29:42.548Z,165
2017-08-01T12:30:42.254Z,170
2017-08-01T12:31:42.270Z,170
2017-08-01T12:32:41.616Z,170
2017-08-01T12:33:42.271Z,170
2017-08-01T12:34:44.059Z,170
2017-08-01T12:35:42.610Z,170
2017-08-01T12:36:42.283Z,170
2017-08-01T12:37:42.295Z,170
2017-08-01T12:38:42.297Z,170
2017-08-01T12:39:42.307Z,170
2017-08-01T12:40:42.308Z,170
2017-08-01T12:41:42.336Z,170
2017-08-01T12:42:42.348Z,170
2017-08-01T12:43:41.717Z,170
2017-08-01T12:44:42.012Z,170
2017-08-01T12:45:42.035Z,170
2017-08-01T12:46:42.395Z,170
2017-08-01T12:47:42.370Z,170
2017-08-01T12:48:42.055Z,170
2017-08-01T12:49:42.409Z,170
2017-08-01T12:50:42.088Z,175
2017-08-01T12:51:42.703Z,175
2017-08-01T12:52:42.395Z,175
2017-08-01T12:53:42.720Z,180
2017-08-01T12:54:42.726Z,180
2017-08-01T12:55:41.448Z,175
2017-08-01T12:56:42.439Z,170
2017-08-01T12:57:42.756Z,170
2017-08-01T12:58:42.110Z,175
2017-08-01T12:59:42.816Z,175
2017-08-01T13:00:42.483Z,175
2017-08-01T13:01:42.815Z,175
2017-08-01T13:02:42.466Z,175
2017-08-01T13:03:41.855Z,170
2017-08-01T13:04:42.483Z,175
2017-08-01T13:05:42.189Z,180
2017-08-01T13:06:42.502Z,185
2017-08-01T13:07:42.500Z,195
2017-08-01T13:08:42.518Z,200
2017-08-01T13:09:42.852Z,195
2017-08-01T13:10:42.535Z,205
2017-08-01T13:11:42.212Z,205
2017-08-01T13:12:41.901Z,205
2017-08-01T13:13:42.883Z,205
2017-08-01T13:14:42.552Z,195
2017-08-01T13:15:42.554Z,190
2017-08-01T13:16:42.895Z,190
2017-08-01T13:17:42.890Z,185
2017-08-01T13:18:42.293Z,195
2017-08-01T13:19:41.987Z,195
2017-08-01T13:20:42.607Z,205
2017-08-01T13:21:42.929Z,185
2017-08-01T13:22:42.639Z,180
2017-08-01T13:23:42.287Z,195
2017-08-01T13:24:41.995Z,200
2017-08-01T13:25:42.977Z,200
2017-08-01T13:26:42.319Z,195
2017-08-01T13:27:42.661Z,200
2017-08-01T13:28:42.663Z,205
2017-08-01T13:29:42.355Z,180
2017-08-01T13:30:42.374Z,165
2017-08-01T13:31:42.693Z,165
2017-08-01T13:32:43.016Z,175
2017-08-01T13:33:42.391Z,210
2017-08-01T13:34:42.711Z,280
2017-08-01T13:35:42.744Z,335
2017-08-01T13:36:42.122Z,355
2017-08-01T13:37:42.717Z,310
2017-08-01T13:38:42.414Z,255
2017-08-01T13:39:42.736Z,230
2017-08-01T13:40:43.060Z,235
2017-08-01T13:41:43.059Z,235
2017-08-01T13:42:42.119Z,220
2017-08-01T13:43:43.083Z,210
2017-08-01T13:44:42.774Z,210
2017-08-01T13:45:42.461Z,210
2017-08-01T13:46:43.100Z,235
2017-08-01T13:47:43.112Z,295
2017-08-01T13:48:42.492Z,335
2017-08-01T13:49:42.201Z,335
2017-08-01T13:50:43.155Z,325
2017-08-01T13:51:42.507Z,280
2017-08-01T13:52:42.221Z,250
2017-08-01T13:53:42.863Z,230
2017-08-01T13:54:43.197Z,230
2017-08-01T13:55:43.174Z,240
2017-08-01T13:56:42.881Z,245
2017-08-01T13:57:42.876Z,255
2017-08-01T13:58:42.870Z,250
2017-08-01T13:59:42.930Z,245
2017-08-01T14:00:43.235Z,235
2017-08-01T14:01:42.907Z,225
2017-08-01T14:02:43.245Z,210
2017-08-01T14:03:42.959Z,200
2017-08-01T14:04:42.598Z,195